Time;durP1;ratioP1;P1;durP2;ratioP2;P2;SDS_P1;SDS_P2;PMS_P1;PMS_P2;Temp;Humidity;BMP_temperature;BMP_pressure;BME280_temperature;BME280_humidity;BME280_pressure;Samples;Min_cycle;Max_cycle;Signal;HPM_P1;HPM_P2
2023/10/01 00:02:18;;;;;;;;;;;20.60;99.90;;;;;;5034242;28;19997;-70
2023/10/01 00:04:44;;;;;;;;;;;20.60;99.90;;;;;;5034475;28;19940;-69
2023/10/01 00:07:10;;;;;;;;;;;20.60;99.90;;;;;;5033944;28;19913;-70
2023/10/01 00:09:37;;;;;;;;;;;20.60;99.90;;;;;;5034243;28;19948;-71
2023/10/01 00:12:04;;;;;;;;;;;20.60;99.90;;;;;;5034115;28;20238;-70
2023/10/01 00:14:30;;;;;;;;;;;20.50;99.90;;;;;;5034045;28;20350;-70
2023/10/01 00:16:56;;;;;;;;;;;20.50;99.90;;;;;;5034347;28;19935;-70
2023/10/01 00:19:22;;;;;;;;;;;20.50;99.90;;;;;;5033664;28;19912;-71
2023/10/01 00:21:48;;;;;;;;;;;20.50;99.90;;;;;;5033602;28;20006;-70
2023/10/01 00:24:14;;;;;;;;;;;20.50;99.90;;;;;;5034086;28;19940;-70
2023/10/01 00:26:40;;;;;;;;;;;20.50;99.90;;;;;;5033885;28;19917;-70
2023/10/01 00:29:05;;;;;;;;;;;20.40;99.90;;;;;;5033597;28;20000;-70
2023/10/01 00:31:31;;;;;;;;;;;20.50;99.90;;;;;;5034092;28;19905;-70
2023/10/01 00:33:57;;;;;;;;;;;20.50;99.90;;;;;;5033784;28;19911;-70
2023/10/01 00:36:23;;;;;;;;;;;20.40;99.90;;;;;;5033539;28;19984;-70
2023/10/01 00:38:49;;;;;;;;;;;20.40;99.90;;;;;;5032128;28;19904;-70
2023/10/01 00:41:15;;;;;;;;;;;20.30;99.90;;;;;;5034006;28;19904;-69
2023/10/01 00:43:41;;;;;;;;;;;20.30;99.90;;;;;;5033706;28;19905;-70
2023/10/01 00:46:08;;;;;;;;;;;20.20;99.90;;;;;;5033823;28;19905;-70
2023/10/01 00:48:36;;;;;;;;;;;20.20;99.90;;;;;;5033601;28;19909;-70
2023/10/01 00:51:04;;;;;;;;;;;20.20;99.90;;;;;;5033276;28;20391;-70
2023/10/01 00:53:30;;;;;;;;;;;20.20;99.90;;;;;;5033812;28;19928;-70
2023/10/01 00:55:59;;;;;;;;;;;20.20;99.90;;;;;;5033850;28;20315;-70
2023/10/01 00:58:24;;;;;;;;;;;20.20;99.90;;;;;;5033493;28;19905;-69
2023/10/01 01:00:52;;;;;;;;;;;20.10;99.90;;;;;;5033288;28;19905;-70
2023/10/01 01:03:24;;;;;;;;;;;20.10;99.90;;;;;;5033307;28;19905;-71
2023/10/01 01:06:37;;;;;;;;;;;20.10;99.90;;;;;;5033345;28;19920;-70
2023/10/01 01:08:46;;;;;;;;;;;20.10;99.90;;;;;;5032476;28;19916;-71
2023/10/01 01:11:15;;;;;;;;;;;20.20;99.90;;;;;;5033425;28;19909;-70
2023/10/01 01:13:43;;;;;;;;;;;20.10;99.90;;;;;;5033069;28;19949;-70
2023/10/01 01:16:13;;;;;;;;;;;20.10;99.90;;;;;;5031806;28;19913;-72
2023/10/01 01:18:41;;;;;;;;;;;20.20;99.90;;;;;;5033185;28;19919;-71
2023/10/01 01:21:13;;;;;;;;;;;20.10;99.90;;;;;;5032798;28;19992;-71
2023/10/01 01:23:41;;;;;;;;;;;20.10;99.90;;;;;;5032882;28;20273;-70
2023/10/01 01:26:08;;;;;;;;;;;20.00;99.90;;;;;;5032771;28;19949;-70
2023/10/01 01:28:35;;;;;;;;;;;20.10;99.90;;;;;;5032808;28;20284;-70
2023/10/01 01:31:04;;;;;;;;;;;20.10;99.90;;;;;;5033202;28;19992;-71
2023/10/01 01:33:40;;;;;;;;;;;20.10;99.90;;;;;;5032723;28;19987;-71
2023/10/01 01:36:09;;;;;;;;;;;20.10;99.90;;;;;;5032781;28;19912;-71
2023/10/01 01:38:37;;;;;;;;;;;20.00;99.90;;;;;;5032930;28;19944;-70
2023/10/01 01:41:05;;;;;;;;;;;20.10;99.90;;;;;;5032631;28;20384;-70
2023/10/01 01:43:32;;;;;;;;;;;20.10;99.90;;;;;;5032755;28;19917;-71
2023/10/01 01:46:00;;;;;;;;;;;20.10;99.90;;;;;;5031014;28;19951;-70
2023/10/01 01:51:00;;;;;;;;;;;20.20;99.90;;;;;;5032126;28;20034;-70
2023/10/01 01:53:27;;;;;;;;;;;20.20;99.90;;;;;;5032708;28;19968;-70
2023/10/01 01:55:56;;;;;;;;;;;20.20;99.90;;;;;;5032347;28;19905;-70
2023/10/01 01:58:26;;;;;;;;;;;20.10;99.90;;;;;;5032340;28;19920;-70
2023/10/01 02:01:01;;;;;;;;;;;20.10;99.90;;;;;;5030923;28;19992;-72
2023/10/01 02:03:27;;;;;;;;;;;20.00;99.90;;;;;;5032479;28;20235;-70
2023/10/01 02:05:53;;;;;;;;;;;20.10;99.90;;;;;;5032080;28;20361;-70
2023/10/01 02:08:35;;;;;;;;;;;20.00;99.90;;;;;;5032301;28;19913;-72
2023/10/01 02:11:04;;;;;;;;;;;20.00;99.90;;;;;;5031094;28;19904;-71
2023/10/01 02:13:33;;;;;;;;;;;20.00;99.90;;;;;;5032020;28;19909;-70
2023/10/01 02:16:18;;;;;;;;;;;20.00;99.90;;;;;;5032440;28;19944;-70
2023/10/01 02:18:57;;;;;;;;;;;20.10;99.90;;;;;;5032216;28;19955;-71
2023/10/01 02:21:49;;;;;;;;;;;20.10;99.90;;;;;;5030563;28;20330;-70
2023/10/01 02:24:11;;;;;;;;;;;20.10;99.90;;;;;;5031715;28;19947;-70
2023/10/01 02:26:40;;;;;;;;;;;20.00;99.90;;;;;;5032234;28;19971;-72
2023/10/01 02:29:06;;;;;;;;;;;20.00;99.90;;;;;;5031788;28;19909;-71
2023/10/01 02:31:34;;;;;;;;;;;20.10;99.90;;;;;;5031781;28;19975;-71
2023/10/01 02:34:01;;;;;;;;;;;20.30;99.90;;;;;;5030352;28;19905;-71
2023/10/01 02:36:27;;;;;;;;;;;20.40;99.90;;;;;;5031480;28;19995;-71
2023/10/01 02:38:53;;;;;;;;;;;20.40;99.90;;;;;;5031798;28;19905;-70
2023/10/01 02:41:26;;;;;;;;;;;20.50;99.90;;;;;;5031985;28;20270;-71
2023/10/01 02:43:53;;;;;;;;;;;20.50;99.90;;;;;;5031639;28;19916;-70
2023/10/01 02:46:26;;;;;;;;;;;20.50;99.90;;;;;;5031947;28;20353;-70
2023/10/01 02:49:03;;;;;;;;;;;20.50;99.90;;;;;;5031484;28;19909;-70
2023/10/01 02:51:37;;;;;;;;;;;20.50;99.90;;;;;;5031617;28;20320;-70
2023/10/01 02:54:05;;;;;;;;;;;20.50;99.90;;;;;;5032095;28;20004;-71
2023/10/01 02:56:52;;;;;;;;;;;20.40;99.90;;;;;;5031843;28;19940;-71
2023/10/01 02:59:19;;;;;;;;;;;20.40;99.90;;;;;;5032079;28;19905;-70
2023/10/01 03:01:48;;;;;;;;;;;20.40;99.90;;;;;;5034454;28;19905;-71
2023/10/01 03:04:17;;;;;;;;;;;20.50;99.90;;;;;;5035723;28;19924;-70
2023/10/01 03:06:56;;;;;;;;;;;20.40;99.90;;;;;;5035170;28;20365;-70
2023/10/01 03:09:28;;;;;;;;;;;20.40;99.90;;;;;;5035809;28;19905;-69
2023/10/01 03:14:42;;;;;;;;;;;20.40;99.90;;;;;;5035484;28;19912;-71
2023/10/01 03:17:09;;;;;;;;;;;20.40;99.90;;;;;;5035387;28;19905;-71
2023/10/01 03:19:36;;;;;;;;;;;20.30;99.90;;;;;;5035443;28;19905;-71
2023/10/01 03:24:42;;;;;;;;;;;20.30;99.90;;;;;;5035182;28;19905;-70
2023/10/01 03:27:25;;;;;;;;;;;20.30;99.90;;;;;;5035466;28;19935;-71
2023/10/01 03:30:00;;;;;;;;;;;20.20;99.90;;;;;;5033647;28;19905;-70
2023/10/01 03:32:29;;;;;;;;;;;20.20;99.90;;;;;;5035226;28;19916;-70
2023/10/01 03:34:56;;;;;;;;;;;20.10;99.90;;;;;;5034870;28;19905;-70
2023/10/01 03:37:27;;;;;;;;;;;20.10;99.90;;;;;;5034684;28;20350;-70
2023/10/01 03:40:01;;;;;;;;;;;20.10;99.90;;;;;;5035176;28;19990;-70
2023/10/01 03:42:33;;;;;;;;;;;20.00;99.90;;;;;;5035282;28;19916;-71
2023/10/01 03:45:37;;;;;;;;;;;19.90;99.90;;;;;;5034929;28;19912;-70
2023/10/01 03:47:57;;;;;;;;;;;19.90;99.90;;;;;;5032575;28;19989;-70
2023/10/01 03:50:25;;;;;;;;;;;19.80;99.90;;;;;;5034514;28;20026;-70
2023/10/01 03:52:54;;;;;;;;;;;19.80;99.90;;;;;;5035417;28;19912;-71
2023/10/01 03:55:30;;;;;;;;;;;19.70;99.90;;;;;;5034740;28;19905;-70
2023/10/01 03:58:06;;;;;;;;;;;19.70;99.90;;;;;;5035069;28;19934;-70
2023/10/01 04:00:41;;;;;;;;;;;19.60;99.90;;;;;;5034518;28;19968;-71
2023/10/01 04:03:08;;;;;;;;;;;19.60;99.90;;;;;;5034802;28;19915;-70
2023/10/01 04:05:37;;;;;;;;;;;19.60;99.90;;;;;;5034442;28;20039;-71
2023/10/01 04:08:11;;;;;;;;;;;19.50;99.90;;;;;;5034248;28;19988;-70
2023/10/01 04:10:41;;;;;;;;;;;19.50;99.90;;;;;;5034591;28;20277;-70
2023/10/01 04:13:13;;;;;;;;;;;19.50;99.90;;;;;;5032436;28;19966;-70
2023/10/01 04:15:41;;;;;;;;;;;19.50;99.90;;;;;;5034744;28;19905;-71
2023/10/01 04:20:50;;;;;;;;;;;19.50;99.90;;;;;;5033974;28;19905;-70
2023/10/01 04:23:24;;;;;;;;;;;19.50;99.90;;;;;;5034241;28;19917;-71
2023/10/01 04:25:54;;;;;;;;;;;19.50;99.90;;;;;;5034306;28;19909;-71
2023/10/01 04:28:20;;;;;;;;;;;19.50;99.90;;;;;;5034264;28;19920;-71
2023/10/01 04:30:51;;;;;;;;;;;19.60;99.90;;;;;;5032587;28;19912;-71
2023/10/01 04:33:23;;;;;;;;;;;19.70;99.90;;;;;;5032579;28;19908;-70
2023/10/01 04:35:58;;;;;;;;;;;19.70;99.90;;;;;;5033786;28;19959;-70
2023/10/01 04:38:29;;;;;;;;;;;19.80;99.90;;;;;;5034073;28;19909;-70
2023/10/01 04:40:57;;;;;;;;;;;19.70;99.90;;;;;;5034015;28;20353;-69
2023/10/01 04:43:26;;;;;;;;;;;19.80;99.90;;;;;;5033630;28;19958;-70
2023/10/01 04:45:52;;;;;;;;;;;19.70;99.90;;;;;;5033762;28;19909;-70
2023/10/01 04:48:23;;;;;;;;;;;19.70;99.90;;;;;;5033404;28;19924;-70
2023/10/01 04:50:50;;;;;;;;;;;19.60;99.90;;;;;;5033086;28;20246;-70
2023/10/01 04:53:19;;;;;;;;;;;19.70;99.90;;;;;;5033851;28;20007;-70
2023/10/01 04:55:57;;;;;;;;;;;19.60;99.90;;;;;;5033391;28;19912;-70
2023/10/01 04:58:23;;;;;;;;;;;19.60;99.90;;;;;;5033490;28;20039;-71
2023/10/01 05:00:50;;;;;;;;;;;19.50;99.90;;;;;;5033545;28;19905;-69
2023/10/01 05:03:16;;;;;;;;;;;19.50;99.90;;;;;;5033238;28;19974;-70
2023/10/01 05:05:45;;;;;;;;;;;19.50;99.90;;;;;;5032976;28;19906;-70
2023/10/01 05:08:14;;;;;;;;;;;19.40;99.90;;;;;;5033169;28;19917;-71
2023/10/01 05:10:52;;;;;;;;;;;19.40;99.90;;;;;;5033270;28;20069;-70
2023/10/01 05:13:22;;;;;;;;;;;19.30;99.90;;;;;;5033428;28;19905;-69
2023/10/01 05:15:57;;;;;;;;;;;19.30;99.90;;;;;;5032953;28;20004;-70
2023/10/01 05:18:27;;;;;;;;;;;19.30;99.90;;;;;;5033454;28;19905;-69
2023/10/01 05:20:58;;;;;;;;;;;19.30;99.90;;;;;;5032830;28;19905;-69
2023/10/01 05:23:26;;;;;;;;;;;19.30;99.90;;;;;;5031974;28;19913;-69
2023/10/01 05:25:52;;;;;;;;;;;19.40;99.90;;;;;;5031299;28;20043;-69
2023/10/01 05:28:23;;;;;;;;;;;19.40;99.90;;;;;;5032631;28;19915;-69
2023/10/01 05:30:57;;;;;;;;;;;19.40;99.90;;;;;;5033226;28;19931;-70
2023/10/01 05:33:32;;;;;;;;;;;19.50;99.90;;;;;;5032942;28;19949;-69
2023/10/01 05:36:05;;;;;;;;;;;19.60;99.90;;;;;;5032888;28;19944;-70
2023/10/01 05:38:35;;;;;;;;;;;19.70;99.90;;;;;;5032773;28;20361;-70
2023/10/01 05:41:03;;;;;;;;;;;20.30;99.90;;;;;;5032692;28;19949;-70
2023/10/01 05:43:38;;;;;;;;;;;20.90;99.90;;;;;;5032499;28;19909;-70
2023/10/01 05:46:08;;;;;;;;;;;21.20;99.90;;;;;;5033041;28;19905;-70
2023/10/01 05:48:39;;;;;;;;;;;21.90;99.90;;;;;;5032612;28;19913;-71
2023/10/01 05:51:20;;;;;;;;;;;22.70;99.90;;;;;;5032098;28;19917;-70
2023/10/01 05:53:46;;;;;;;;;;;22.90;99.90;;;;;;5030970;28;20005;-71
2023/10/01 05:56:17;;;;;;;;;;;23.20;99.90;;;;;;5031246;28;20344;-71
2023/10/01 05:58:43;;;;;;;;;;;23.90;99.90;;;;;;5032789;28;19948;-71
2023/10/01 06:01:16;;;;;;;;;;;24.20;99.90;;;;;;5031170;28;19916;-71
2023/10/01 06:03:42;;;;;;;;;;;24.50;99.90;;;;;;5032214;28;20368;-72
2023/10/01 06:06:09;;;;;;;;;;;25.20;99.90;;;;;;5032074;28;19952;-70
2023/10/01 06:08:45;;;;;;;;;;;25.60;99.90;;;;;;5031960;28;19909;-70
2023/10/01 06:11:15;;;;;;;;;;;26.30;99.90;;;;;;5032211;28;19905;-70
2023/10/01 06:13:49;;;;;;;;;;;26.30;99.90;;;;;;5032212;28;20260;-70
2023/10/01 06:16:16;;;;;;;;;;;26.40;99.90;;;;;;5030722;28;19905;-71
2023/10/01 06:18:49;;;;;;;;;;;26.80;99.90;;;;;;5032282;28;19955;-70
2023/10/01 06:21:18;;;;;;;;;;;27.10;99.90;;;;;;5032293;28;19927;-71
2023/10/01 06:23:49;;;;;;;;;;;27.90;99.90;;;;;;5032446;28;20313;-70
2023/10/01 06:26:20;;;;;;;;;;;27.50;99.90;;;;;;5032244;28;19966;-70
2023/10/01 06:28:46;;;;;;;;;;;27.20;99.90;;;;;;5032209;28;19948;-70
2023/10/01 06:31:12;;;;;;;;;;;27.50;99.90;;;;;;5030640;28;20003;-71
2023/10/01 06:33:38;;;;;;;;;;;28.10;99.90;;;;;;5032091;28;19952;-71
2023/10/01 06:36:19;;;;;;;;;;;28.40;99.90;;;;;;5032131;28;19905;-71
2023/10/01 06:38:47;;;;;;;;;;;28.70;99.90;;;;;;5032268;28;20250;-71
2023/10/01 06:41:18;;;;;;;;;;;28.80;99.90;;;;;;5031783;28;19905;-71
2023/10/01 06:43:48;;;;;;;;;;;29.10;99.90;;;;;;5032433;28;19905;-72
2023/10/01 06:46:15;;;;;;;;;;;29.00;99.90;;;;;;5031751;28;19912;-70
2023/10/01 06:48:42;;;;;;;;;;;28.40;99.90;;;;;;5030411;28;19943;-70
2023/10/01 06:51:08;;;;;;;;;;;28.50;99.90;;;;;;5031634;28;19917;-71
2023/10/01 06:53:47;;;;;;;;;;;28.50;99.90;;;;;;5031949;28;19905;-72
2023/10/01 06:56:17;;;;;;;;;;;28.70;99.90;;;;;;5032303;28;20376;-71
2023/10/01 06:59:01;;;;;;;;;;;29.20;99.90;;;;;;5032196;28;19912;-72
2023/10/01 07:01:46;;;;;;;;;;;29.20;99.90;;;;;;5032362;28;20052;-72
2023/10/01 07:04:23;;;;;;;;;;;29.40;99.90;;;;;;5032213;28;20003;-71
2023/10/01 07:06:50;;;;;;;;;;;29.60;99.90;;;;;;5031294;28;20012;-71
2023/10/01 07:09:32;;;;;;;;;;;29.30;99.90;;;;;;5031799;28;19905;-71
2023/10/01 07:11:59;;;;;;;;;;;29.30;99.90;;;;;;5032182;28;20447;-71
2023/10/01 07:14:38;;;;;;;;;;;28.90;99.90;;;;;;5031744;28;20001;-72
2023/10/01 07:17:08;;;;;;;;;;;29.50;99.90;;;;;;5031859;28;20328;-72
2023/10/01 07:19:35;;;;;;;;;;;29.30;99.90;;;;;;5031516;28;20278;-71
2023/10/01 07:22:06;;;;;;;;;;;28.60;99.90;;;;;;5031227;28;19908;-72
2023/10/01 07:24:38;;;;;;;;;;;28.20;99.90;;;;;;5032070;28;19905;-71
2023/10/01 07:27:06;;;;;;;;;;;28.40;99.90;;;;;;5031841;28;19909;-72
2023/10/01 07:29:35;;;;;;;;;;;28.20;99.90;;;;;;5031466;28;19944;-70
2023/10/01 07:32:02;;;;;;;;;;;28.30;99.90;;;;;;5031363;28;19905;-72
2023/10/01 07:34:31;;;;;;;;;;;28.30;99.90;;;;;;5031564;28;20121;-72
2023/10/01 07:36:59;;;;;;;;;;;28.10;99.90;;;;;;5031204;28;19971;-73
2023/10/01 07:39:30;;;;;;;;;;;27.50;99.90;;;;;;5031466;28;20008;-72
2023/10/01 07:41:59;;;;;;;;;;;27.40;99.90;;;;;;5031909;28;19905;-71
2023/10/01 07:44:27;;;;;;;;;;;27.80;99.90;;;;;;5031529;28;19919;-73
2023/10/01 07:46:53;;;;;;;;;;;27.90;99.90;;;;;;5032872;28;19920;-73
2023/10/01 07:49:21;;;;;;;;;;;27.80;99.90;;;;;;5035059;28;19909;-71
2023/10/01 07:51:48;;;;;;;;;;;28.00;99.90;;;;;;5034702;28;19913;-72
2023/10/01 07:54:20;;;;;;;;;;;27.70;99.90;;;;;;5034850;28;19905;-72
2023/10/01 07:56:56;;;;;;;;;;;27.50;99.90;;;;;;5034693;28;19912;-71
2023/10/01 07:59:34;;;;;;;;;;;27.40;99.90;;;;;;5033206;28;19905;-71
2023/10/01 08:07:15;;;;;;;;;;;27.70;99.90;;;;;;5034072;28;19975;-70
2023/10/01 08:09:46;;;;;;;;;;;27.50;99.90;;;;;;5033909;28;19941;-70
2023/10/01 08:12:15;;;;;;;;;;;27.50;99.90;;;;;;5032787;28;19917;-71
2023/10/01 08:14:41;;;;;;;;;;;27.50;99.90;;;;;;5034225;28;19905;-71
2023/10/01 08:17:08;;;;;;;;;;;27.30;99.90;;;;;;5033904;28;19906;-71
2023/10/01 08:19:49;;;;;;;;;;;27.50;99.90;;;;;;5034237;28;20064;-70
2023/10/01 08:22:22;;;;;;;;;;;27.60;99.90;;;;;;5035387;28;19958;-71
2023/10/01 08:24:49;;;;;;;;;;;27.80;99.90;;;;;;5035852;28;19909;-71
2023/10/01 08:27:31;;;;;;;;;;;27.90;99.90;;;;;;5035317;28;19984;-72
2023/10/01 08:30:18;;;;;;;;;;;28.50;99.90;;;;;;5036020;28;19909;-71
2023/10/01 08:32:49;;;;;;;;;;;28.30;99.90;;;;;;5034266;28;20257;-72
2023/10/01 08:35:32;;;;;;;;;;;28.00;99.90;;;;;;5036136;28;19909;-71
2023/10/01 08:37:59;;;;;;;;;;;27.50;99.90;;;;;;5033848;28;19912;-71
2023/10/01 08:40:27;;;;;;;;;;;27.40;99.90;;;;;;5033906;28;19915;-72
2023/10/01 08:42:58;;;;;;;;;;;27.60;99.90;;;;;;5033923;28;19912;-71
2023/10/01 08:45:37;;;;;;;;;;;27.90;99.90;;;;;;5033862;28;19932;-70
2023/10/01 08:48:05;;;;;;;;;;;28.40;99.90;;;;;;5035554;28;19913;-72
2023/10/01 08:50:36;;;;;;;;;;;28.20;99.90;;;;;;5034956;28;19940;-72
2023/10/01 08:53:10;;;;;;;;;;;28.00;99.90;;;;;;5034093;28;20019;-72
2023/10/01 08:58:25;;;;;;;;;;;27.80;99.90;;;;;;5034217;28;19912;-71
2023/10/01 09:00:53;;;;;;;;;;;27.60;99.90;;;;;;5034599;28;19952;-71
2023/10/01 09:03:34;;;;;;;;;;;27.80;99.90;;;;;;5033831;28;20357;-70
2023/10/01 09:06:03;;;;;;;;;;;28.20;99.90;;;;;;5033980;28;19909;-71
2023/10/01 09:08:32;;;;;;;;;;;28.40;99.90;;;;;;5033740;28;20407;-71
2023/10/01 09:11:10;;;;;;;;;;;28.60;99.90;;;;;;5034097;28;19909;-71
2023/10/01 09:14:15;;;;;;;;;;;28.80;99.90;;;;;;5034024;28;19905;-73
2023/10/01 09:16:45;;;;;;;;;;;28.90;99.90;;;;;;5033731;28;19959;-70
2023/10/01 09:21:56;;;;;;;;;;;28.80;99.90;;;;;;5033465;28;19928;-70
2023/10/01 09:24:34;;;;;;;;;;;28.80;99.90;;;;;;5034066;28;19951;-71
2023/10/01 09:27:28;;;;;;;;;;;28.90;99.90;;;;;;5033337;28;19923;-69
2023/10/01 09:30:23;;;;;;;;;;;28.90;99.90;;;;;;5033188;28;19948;-70
2023/10/01 09:32:51;;;;;;;;;;;29.00;99.90;;;;;;5033310;28;19909;-71
2023/10/01 09:35:38;;;;;;;;;;;29.10;99.90;;;;;;5033773;28;20293;-71
2023/10/01 09:38:10;;;;;;;;;;;29.00;99.90;;;;;;5033048;28;19905;-71
2023/10/01 09:40:38;;;;;;;;;;;28.50;99.90;;;;;;5033450;28;19905;-71
2023/10/01 09:43:04;;;;;;;;;;;28.30;99.90;;;;;;5033136;28;20109;-71
2023/10/01 09:45:37;;;;;;;;;;;28.20;99.90;;;;;;5033064;28;20069;-71
2023/10/01 09:48:04;;;;;;;;;;;28.20;99.90;;;;;;5033321;28;19967;-71
2023/10/01 09:50:41;;;;;;;;;;;28.40;99.90;;;;;;5031563;28;20277;-70
2023/10/01 09:53:13;;;;;;;;;;;28.60;99.90;;;;;;5032748;28;19909;-72
2023/10/01 09:55:47;;;;;;;;;;;28.30;99.90;;;;;;5033385;28;19912;-70
2023/10/01 09:58:25;;;;;;;;;;;28.30;99.90;;;;;;5031570;28;19960;-72
2023/10/01 10:00:52;;;;;;;;;;;28.40;99.90;;;;;;5031449;28;20012;-71
2023/10/01 10:03:21;;;;;;;;;;;28.50;99.90;;;;;;5032938;28;19909;-72
2023/10/01 10:05:47;;;;;;;;;;;28.50;99.90;;;;;;5033083;28;20371;-71
2023/10/01 10:08:15;;;;;;;;;;;28.60;99.90;;;;;;5033086;28;19913;-71
2023/10/01 10:10:52;;;;;;;;;;;28.80;99.90;;;;;;5032788;28;20314;-72
2023/10/01 10:13:46;;;;;;;;;;;28.90;99.90;;;;;;5032641;28;19913;-71
2023/10/01 10:16:35;;;;;;;;;;;28.80;99.90;;;;;;5033131;28;20001;-72
2023/10/01 10:19:05;;;;;;;;;;;29.00;99.90;;;;;;5032489;28;19967;-70
2023/10/01 10:21:49;;;;;;;;;;;29.00;99.90;;;;;;5032336;28;19936;-70
2023/10/01 10:24:21;;;;;;;;;;;28.90;99.90;;;;;;5032533;28;19920;-71
2023/10/01 10:29:46;;;;;;;;;;;29.10;99.90;;;;;;5032470;28;19947;-70
2023/10/01 10:32:16;;;;;;;;;;;28.90;99.90;;;;;;5032571;28;19921;-71
2023/10/01 10:35:03;;;;;;;;;;;29.00;99.90;;;;;;5030996;28;19909;-71
2023/10/01 10:37:36;;;;;;;;;;;28.90;99.90;;;;;;5032102;28;19909;-71
2023/10/01 10:40:12;;;;;;;;;;;28.70;99.90;;;;;;5032378;28;19905;-72
2023/10/01 10:42:42;;;;;;;;;;;28.80;99.90;;;;;;5031032;28;19909;-71
2023/10/01 10:45:19;;;;;;;;;;;28.60;99.90;;;;;;5032489;28;20266;-72
2023/10/01 10:47:58;;;;;;;;;;;28.70;99.90;;;;;;5032425;28;19913;-71
2023/10/01 10:50:41;;;;;;;;;;;28.80;99.90;;;;;;5032269;28;19917;-71
2023/10/01 10:53:15;;;;;;;;;;;28.60;99.90;;;;;;5032024;28;19909;-71
2023/10/01 10:55:50;;;;;;;;;;;28.90;99.90;;;;;;5032677;28;19905;-72
2023/10/01 10:58:16;;;;;;;;;;;28.90;99.90;;;;;;5032430;28;19905;-72
2023/10/01 11:00:42;;;;;;;;;;;28.80;99.90;;;;;;5032215;28;20023;-72
2023/10/01 11:03:11;;;;;;;;;;;28.90;99.90;;;;;;5032266;28;19908;-71
2023/10/01 11:05:52;;;;;;;;;;;29.10;99.90;;;;;;5032701;28;19912;-71
2023/10/01 11:08:28;;;;;;;;;;;29.20;99.90;;;;;;5031944;28;19970;-71
2023/10/01 11:10:55;;;;;;;;;;;29.10;99.90;;;;;;5032367;28;19909;-72
2023/10/01 11:13:45;;;;;;;;;;;29.00;99.90;;;;;;5032742;28;20269;-70
2023/10/01 11:16:16;;;;;;;;;;;29.00;99.90;;;;;;5032084;28;19909;-70
2023/10/01 11:18:47;;;;;;;;;;;29.10;99.90;;;;;;5032526;28;19987;-72
2023/10/01 11:21:20;;;;;;;;;;;28.80;99.90;;;;;;5031853;28;19909;-71
2023/10/01 11:23:55;;;;;;;;;;;28.90;99.90;;;;;;5036248;28;19905;-70
2023/10/01 11:26:29;;;;;;;;;;;29.00;99.90;;;;;;5035784;28;20417;-70
2023/10/01 11:29:01;;;;;;;;;;;29.30;99.90;;;;;;5035626;28;19909;-70
2023/10/01 11:31:30;;;;;;;;;;;29.20;99.90;;;;;;5035926;28;20265;-70
2023/10/01 11:34:04;;;;;;;;;;;28.90;99.90;;;;;;5035847;28;20353;-71
2023/10/01 11:36:36;;;;;;;;;;;29.00;99.90;;;;;;5034597;28;19909;-70
2023/10/01 11:39:03;;;;;;;;;;;29.10;99.90;;;;;;5035728;28;19905;-71
2023/10/01 11:41:39;;;;;;;;;;;29.20;99.90;;;;;;5035542;28;19905;-70
2023/10/01 11:44:06;;;;;;;;;;;29.20;99.90;;;;;;5035452;28;19913;-71
2023/10/01 11:46:57;;;;;;;;;;;28.70;99.90;;;;;;5033966;28;20354;-71
2023/10/01 11:49:32;;;;;;;;;;;28.90;99.90;;;;;;5035019;28;20362;-71
2023/10/01 11:52:05;;;;;;;;;;;28.90;99.90;;;;;;5035364;28;19921;-72
2023/10/01 11:54:43;;;;;;;;;;;28.70;99.90;;;;;;5035215;28;19905;-71
2023/10/01 11:57:22;;;;;;;;;;;28.80;99.90;;;;;;5034056;28;20379;-71
2023/10/01 11:59:55;;;;;;;;;;;28.90;99.90;;;;;;5035479;28;19925;-71
2023/10/01 12:02:29;;;;;;;;;;;29.00;99.90;;;;;;5033719;28;19999;-71
2023/10/01 12:04:59;;;;;;;;;;;29.00;99.90;;;;;;5035499;28;19905;-70
2023/10/01 12:07:43;;;;;;;;;;;28.90;99.90;;;;;;5034712;28;19919;-70
2023/10/01 12:10:31;;;;;;;;;;;29.00;99.90;;;;;;5034881;28;19909;-71
2023/10/01 12:12:56;;;;;;;;;;;29.10;99.90;;;;;;5034794;28;19905;-71
2023/10/01 12:15:34;;;;;;;;;;;29.30;99.90;;;;;;5035192;28;20249;-70
2023/10/01 12:18:13;;;;;;;;;;;29.00;99.90;;;;;;5035034;28;20222;-71
2023/10/01 12:20:47;;;;;;;;;;;29.00;99.90;;;;;;5035045;28;19905;-69
2023/10/01 12:23:19;;;;;;;;;;;28.90;99.90;;;;;;5034613;28;20000;-71
2023/10/01 12:25:53;;;;;;;;;;;29.00;99.90;;;;;;5034573;28;19992;-70
2023/10/01 12:28:19;;;;;;;;;;;29.00;99.90;;;;;;5034896;28;20245;-70
2023/10/01 12:30:57;;;;;;;;;;;29.20;99.90;;;;;;5034559;28;19905;-71
2023/10/01 12:33:40;;;;;;;;;;;29.00;99.90;;;;;;5033068;28;19911;-71
2023/10/01 12:39:03;;;;;;;;;;;29.00;99.90;;;;;;5034482;28;19911;-71
2023/10/01 12:41:29;;;;;;;;;;;28.90;99.90;;;;;;5034420;28;19909;-71
2023/10/01 12:44:38;;;;;;;;;;;28.90;99.90;;;;;;5034333;28;19905;-72
2023/10/01 12:46:51;;;;;;;;;;;28.80;99.90;;;;;;5033844;28;20375;-72
2023/10/01 12:49:20;;;;;;;;;;;28.80;99.90;;;;;;5033959;28;19925;-71
2023/10/01 12:51:53;;;;;;;;;;;28.60;99.90;;;;;;5032558;28;19905;-72
2023/10/01 12:54:24;;;;;;;;;;;28.50;99.90;;;;;;5034148;28;19913;-72
2023/10/01 12:57:12;;;;;;;;;;;28.50;99.90;;;;;;5033914;28;19938;-71
2023/10/01 12:59:38;;;;;;;;;;;28.50;99.90;;;;;;5033607;28;19972;-69
2023/10/01 13:02:04;;;;;;;;;;;28.60;99.90;;;;;;5033526;28;19995;-71
2023/10/01 13:04:32;;;;;;;;;;;28.50;99.90;;;;;;5033584;28;20007;-71
2023/10/01 13:07:03;;;;;;;;;;;28.60;99.90;;;;;;5033473;28;19971;-71
2023/10/01 13:12:16;;;;;;;;;;;28.20;99.90;;;;;;5033407;28;19905;-71
2023/10/01 13:14:43;;;;;;;;;;;28.20;99.90;;;;;;5033602;28;19979;-72
2023/10/01 13:17:19;;;;;;;;;;;28.30;99.90;;;;;;5033379;28;20437;-71
2023/10/01 13:19:48;;;;;;;;;;;28.50;99.90;;;;;;5033544;28;19905;-72
2023/10/01 13:22:18;;;;;;;;;;;28.50;99.90;;;;;;5033752;28;19999;-72
2023/10/01 13:24:56;;;;;;;;;;;28.50;99.90;;;;;;5033857;28;19905;-72
2023/10/01 13:27:23;;;;;;;;;;;28.60;99.90;;;;;;5033676;28;20007;-71
2023/10/01 13:29:49;;;;;;;;;;;28.40;99.90;;;;;;5033639;28;20047;-71
2023/10/01 13:32:16;;;;;;;;;;;28.40;99.90;;;;;;5033166;28;19905;-70
2023/10/01 13:34:49;;;;;;;;;;;28.40;99.90;;;;;;5033085;28;19905;-72
2023/10/01 14:10:15;;;;;;;;;;;27.80;99.90;;;;;;5031904;28;20324;-71
2023/10/01 14:12:42;;;;;;;;;;;27.90;99.90;;;;;;5032030;28;20402;-71
2023/10/01 14:15:21;;;;;;;;;;;27.90;99.90;;;;;;5031805;28;19912;-70
2023/10/01 14:17:52;;;;;;;;;;;27.80;99.90;;;;;;5033244;28;19905;-71
2023/10/01 14:23:39;;;;;;;;;;;27.90;99.90;;;;;;5032948;28;19912;-70
2023/10/01 14:25:58;;;;;;;;;;;27.80;99.90;;;;;;5032809;28;19921;-71
2023/10/01 14:28:25;;;;;;;;;;;27.70;99.90;;;;;;5032976;28;19913;-71
2023/10/01 14:30:58;;;;;;;;;;;27.60;99.90;;;;;;5032937;28;19940;-71
2023/10/01 14:33:28;;;;;;;;;;;27.60;99.90;;;;;;5033305;28;19905;-71
2023/10/01 14:35:55;;;;;;;;;;;27.60;99.90;;;;;;5033040;28;19912;-71
2023/10/01 14:38:37;;;;;;;;;;;27.40;99.90;;;;;;5031209;28;19905;-71
2023/10/01 14:41:09;;;;;;;;;;;27.50;99.90;;;;;;5031515;28;20254;-71
2023/10/01 14:43:48;;;;;;;;;;;27.40;99.90;;;;;;5032893;28;19905;-71
2023/10/01 14:46:17;;;;;;;;;;;27.30;99.90;;;;;;5032741;28;20376;-71
2023/10/01 14:48:46;;;;;;;;;;;27.20;99.90;;;;;;5032667;28;19939;-71
2023/10/01 14:51:16;;;;;;;;;;;27.20;99.90;;;;;;5031859;28;19977;-70
2023/10/01 14:53:42;;;;;;;;;;;27.20;99.90;;;;;;5030098;28;19956;-71
2023/10/01 14:56:11;;;;;;;;;;;27.20;99.90;;;;;;5031724;28;19911;-72
2023/10/01 14:58:37;;;;;;;;;;;27.30;99.90;;;;;;5035572;28;19912;-70
2023/10/01 15:01:08;;;;;;;;;;;27.30;99.90;;;;;;5035528;28;19909;-70
2023/10/01 15:03:34;;;;;;;;;;;27.30;99.90;;;;;;5035914;28;20338;-71
2023/10/01 15:06:01;;;;;;;;;;;27.10;99.90;;;;;;5035436;28;19905;-71
2023/10/01 15:08:29;;;;;;;;;;;27.10;99.90;;;;;;5034996;28;19913;-70
2023/10/01 15:10:57;;;;;;;;;;;27.10;99.90;;;;;;5035118;28;19905;-70
2023/10/01 15:13:35;;;;;;;;;;;27.20;99.90;;;;;;5035707;28;20238;-70
2023/10/01 15:16:02;;;;;;;;;;;27.30;99.90;;;;;;5035707;28;19905;-70
2023/10/01 15:18:32;;;;;;;;;;;27.20;99.90;;;;;;5036424;28;20427;-70
2023/10/01 15:21:10;;;;;;;;;;;27.10;99.90;;;;;;5036581;28;19991;-71
2023/10/01 15:23:45;;;;;;;;;;;27.00;99.90;;;;;;5035791;28;19958;-70
2023/10/01 15:26:16;;;;;;;;;;;26.90;99.90;;;;;;5036225;28;20336;-71
2023/10/01 15:28:50;;;;;;;;;;;26.90;99.90;;;;;;5036209;28;19956;-70
2023/10/01 15:31:33;;;;;;;;;;;26.80;99.90;;;;;;5036481;28;19912;-70
2023/10/01 15:34:03;;;;;;;;;;;26.90;99.90;;;;;;5036543;28;19909;-71
2023/10/01 15:36:40;;;;;;;;;;;27.00;99.90;;;;;;5036235;28;19911;-70
2023/10/01 15:39:14;;;;;;;;;;;27.00;99.90;;;;;;5034914;28;19912;-71
2023/10/01 15:41:43;;;;;;;;;;;27.10;99.90;;;;;;5036285;28;19955;-71
2023/10/01 15:44:10;;;;;;;;;;;27.10;99.90;;;;;;5036274;28;19909;-71
2023/10/01 15:46:40;;;;;;;;;;;27.00;99.90;;;;;;5035988;28;19909;-71
2023/10/01 15:49:18;;;;;;;;;;;27.00;99.90;;;;;;5035998;28;19909;-71